Time;durP1;ratioP1;P1;durP2;ratioP2;P2;SDS_P1;SDS_P2;PMS_P1;PMS_P2;Temp;Humidity;BMP_temperature;BMP_pressure;BME280_temperature;BME280_humidity;BME280_pressure;Samples;Min_cycle;Max_cycle;Signal;HPM_P1;HPM_P2
2021/07/13 00:00:24;;;;;;;1.53;1.40;;;19.00;99.90;;;;;;4997514;28;20452;-89
2021/07/13 00:02:52;;;;;;;1.43;1.20;;;19.00;99.90;;;;;;4998925;28;20464;-89
2021/07/13 00:05:20;;;;;;;1.57;1.43;;;19.00;99.90;;;;;;5005680;28;20449;-86
2021/07/13 00:07:49;;;;;;;1.33;1.20;;;18.80;99.90;;;;;;4997182;28;20484;-86
2021/07/13 00:10:18;;;;;;;2.30;1.63;;;18.70;99.90;;;;;;4996814;28;20456;-86
2021/07/13 00:12:45;;;;;;;1.20;1.10;;;18.60;99.90;;;;;;4996867;28;20440;-86
2021/07/13 00:15:15;;;;;;;1.37;1.37;;;18.40;99.90;;;;;;4996737;28;20453;-87
2021/07/13 00:17:42;;;;;;;1.50;1.40;;;18.30;99.90;;;;;;4996468;28;20455;-86
2021/07/13 00:20:12;;;;;;;4.40;1.60;;;18.30;99.90;;;;;;4996159;28;20479;-86
2021/07/13 00:22:39;;;;;;;2.00;1.90;;;18.20;99.90;;;;;;4996288;28;20821;-85
2021/07/13 00:25:07;;;;;;;3.33;2.20;;;18.20;99.90;;;;;;4995998;28;20492;-84
2021/07/13 00:27:34;;;;;;;2.63;1.93;;;18.10;99.90;;;;;;4995520;28;21023;-84
2021/07/13 00:30:01;;;;;;;8.37;2.30;;;18.00;99.90;;;;;;4995670;28;20457;-84
2021/07/13 00:32:27;;;;;;;5.80;2.80;;;17.90;99.90;;;;;;4995530;28;20944;-82
2021/07/13 00:34:54;;;;;;;7.73;2.50;;;17.90;99.90;;;;;;5000627;28;20456;-81
2021/07/13 00:37:22;;;;;;;2.97;2.70;;;17.80;99.90;;;;;;4996618;28;20448;-80
2021/07/13 00:39:49;;;;;;;1.50;1.40;;;17.70;99.90;;;;;;4995276;28;20483;-81
2021/07/13 00:42:17;;;;;;;2.30;2.10;;;17.60;99.90;;;;;;4995718;28;20456;-81
2021/07/13 00:44:46;;;;;;;2.90;2.03;;;17.60;99.90;;;;;;4995700;28;20459;-83
2021/07/13 00:47:13;;;;;;;3.30;1.67;;;17.60;99.90;;;;;;4999141;28;20497;-82
2021/07/13 00:49:44;;;;;;;4.17;1.80;;;17.60;99.90;;;;;;4999476;28;20575;-80
2021/07/13 00:52:11;;;;;;;1.33;1.10;;;17.50;99.90;;;;;;4995207;28;20524;-80
2021/07/13 00:54:41;;;;;;;2.37;1.40;;;17.40;99.90;;;;;;4995067;28;20460;-80
2021/07/13 00:57:09;;;;;;;3.73;1.37;;;17.40;99.90;;;;;;4986986;28;20456;-82
2021/07/13 00:59:36;;;;;;;3.23;1.70;;;17.30;99.90;;;;;;4994693;28;21006;-81
2021/07/13 01:02:03;;;;;;;1.60;1.50;;;17.30;99.90;;;;;;4994934;28;20455;-81
2021/07/13 01:04:31;;;;;;;2.10;1.87;;;17.30;99.90;;;;;;4995162;28;20439;-81
2021/07/13 01:07:03;;;;;;;2.40;1.50;;;17.30;99.90;;;;;;4994119;28;20859;-81
2021/07/13 01:09:44;;;;;;;1.70;1.60;;;17.30;99.90;;;;;;4995676;28;20476;-81
2021/07/13 01:12:19;;;;;;;2.60;1.17;;;17.30;99.90;;;;;;4996733;28;20432;-81
2021/07/13 01:14:53;;;;;;;1.87;1.20;;;17.30;99.90;;;;;;4998057;28;20440;-81
2021/07/13 01:17:29;;;;;;;1.87;1.53;;;17.30;99.90;;;;;;4998471;28;20413;-81
2021/07/13 01:20:21;;;;;;;1.67;1.20;;;17.30;99.90;;;;;;4999519;28;20464;-82
2021/07/13 01:22:51;;;;;;;1.60;1.50;;;17.30;99.90;;;;;;5000080;28;20443;-83
2021/07/13 01:25:31;;;;;;;1.90;1.50;;;17.30;99.90;;;;;;5000120;28;20803;-82
2021/07/13 01:28:05;;;;;;;25.63;2.10;;;17.30;99.90;;;;;;4998330;28;20983;-82
2021/07/13 01:30:36;;;;;;;1.90;1.37;;;17.20;99.90;;;;;;4998139;28;20443;-83
2021/07/13 01:33:06;;;;;;;1.93;1.47;;;17.20;99.90;;;;;;4998736;28;20436;-82
2021/07/13 01:35:38;;;;;;;1.70;1.60;;;17.30;99.90;;;;;;4997466;28;20428;-83
2021/07/13 01:38:09;;;;;;;2.80;1.13;;;17.20;99.90;;;;;;4996091;28;20459;-82
2021/07/13 01:40:37;;;;;;;2.73;1.63;;;17.20;99.90;;;;;;4996285;28;20784;-82
2021/07/13 01:43:06;;;;;;;4.67;1.63;;;17.20;99.90;;;;;;4995506;28;20821;-81
2021/07/13 01:45:33;;;;;;;1.70;1.50;;;17.20;99.90;;;;;;4996032;28;20436;-82
2021/07/13 01:48:02;;;;;;;3.13;1.77;;;17.20;99.90;;;;;;4999663;28;20495;-83
2021/07/13 01:50:30;;;;;;;1.87;1.63;;;17.20;99.90;;;;;;5000235;28;20798;-82
2021/07/13 01:52:57;;;;;;;2.30;1.60;;;17.20;99.90;;;;;;5000732;28;20494;-83
2021/07/13 01:55:24;;;;;;;5.70;2.00;;;17.10;99.90;;;;;;4998954;28;20456;-82
2021/07/13 01:57:52;;;;;;;6.70;1.50;;;17.10;99.90;;;;;;5001803;28;20455;-83
2021/07/13 02:00:20;;;;;;;3.13;1.70;;;17.20;99.90;;;;;;5000041;28;20449;-83
2021/07/13 02:02:48;;;;;;;1.20;1.10;;;17.20;99.90;;;;;;5001534;28;20441;-83
2021/07/13 02:05:19;;;;;;;2.53;1.60;;;17.10;99.90;;;;;;5008957;28;20448;-82
2021/07/13 02:07:49;;;;;;;1.63;1.40;;;17.10;99.90;;;;;;5011189;28;20540;-82
2021/07/13 02:10:17;;;;;;;1.80;1.70;;;17.10;99.90;;;;;;5006223;28;20432;-83
2021/07/13 02:12:44;;;;;;;2.40;2.03;;;17.10;99.90;;;;;;5000617;28;20436;-83
2021/07/13 02:15:11;;;;;;;4.13;1.60;;;17.10;99.90;;;;;;4996374;28;20448;-84
2021/07/13 02:17:40;;;;;;;2.10;2.00;;;17.00;99.90;;;;;;4995580;28;20970;-84
2021/07/13 02:20:10;;;;;;;1.73;1.60;;;17.10;99.90;;;;;;5000307;28;20995;-83
2021/07/13 02:22:37;;;;;;;2.20;1.90;;;17.10;99.90;;;;;;5000623;28;20437;-83
2021/07/13 02:25:05;;;;;;;1.60;1.50;;;17.00;99.90;;;;;;4999396;28;20456;-84
2021/07/13 02:27:32;;;;;;;2.80;1.80;;;17.00;99.90;;;;;;4999467;28;20495;-84
2021/07/13 02:30:00;;;;;;;6.57;1.90;;;17.00;99.90;;;;;;4999474;28;20472;-84
2021/07/13 02:32:33;;;;;;;6.27;3.03;;;17.00;99.90;;;;;;4997931;28;20944;-84
2021/07/13 02:35:04;;;;;;;6.07;2.17;;;17.00;99.90;;;;;;4998241;28;20432;-84
2021/07/13 02:37:32;;;;;;;3.13;2.00;;;17.00;99.90;;;;;;4998915;28;20465;-84
2021/07/13 02:39:59;;;;;;;3.27;1.97;;;17.10;99.90;;;;;;4998797;28;20487;-84
2021/07/13 02:42:27;;;;;;;4.27;2.20;;;17.00;99.90;;;;;;4998852;28;20436;-84
2021/07/13 02:44:56;;;;;;;4.30;2.37;;;17.00;99.90;;;;;;4999924;28;20452;-83
2021/07/13 02:47:24;;;;;;;1.73;1.63;;;17.00;99.90;;;;;;4999042;28;20496;-83
2021/07/13 02:49:53;;;;;;;3.67;1.63;;;17.00;99.90;;;;;;5001096;28;20464;-83
2021/07/13 02:52:24;;;;;;;1.83;1.63;;;17.00;99.90;;;;;;5003880;28;20453;-82
2021/07/13 02:54:55;;;;;;;1.90;1.63;;;17.00;99.90;;;;;;5004735;28;20905;-82
2021/07/13 02:57:24;;;;;;;1.47;1.33;;;17.00;99.90;;;;;;5006718;28;20428;-82
2021/07/13 02:59:53;;;;;;;3.17;1.80;;;17.00;99.90;;;;;;5006215;28;20474;-82
2021/07/13 03:02:21;;;;;;;1.50;1.40;;;17.00;99.90;;;;;;5003449;28;20527;-82
2021/07/13 03:04:49;;;;;;;1.47;1.37;;;17.00;99.90;;;;;;5002355;28;20907;-81
2021/07/13 03:07:17;;;;;;;3.07;1.23;;;17.00;99.90;;;;;;5005021;28;20472;-81
2021/07/13 03:09:46;;;;;;;2.03;1.67;;;16.90;99.90;;;;;;5005328;28;20476;-81
2021/07/13 03:12:14;;;;;;;2.47;1.27;;;16.90;99.90;;;;;;5004411;28;20429;-81
2021/07/13 03:14:42;;;;;;;2.60;1.30;;;16.90;99.90;;;;;;4999637;28;20452;-81
2021/07/13 03:17:10;;;;;;;2.03;1.70;;;16.90;99.90;;;;;;4998902;28;20451;-81
2021/07/13 03:19:37;;;;;;;1.63;1.43;;;16.90;99.90;;;;;;4998011;28;20511;-81
2021/07/13 03:22:05;;;;;;;1.90;1.47;;;16.90;99.90;;;;;;4997191;28;20460;-81
2021/07/13 03:24:32;;;;;;;2.47;1.47;;;16.90;99.90;;;;;;4997673;28;20452;-81
2021/07/13 03:27:01;;;;;;;2.00;1.63;;;16.90;99.90;;;;;;4998004;28;20492;-81
2021/07/13 03:29:28;;;;;;;1.63;1.30;;;16.80;99.90;;;;;;4998872;28;20484;-81
2021/07/13 03:31:55;;;;;;;2.10;1.40;;;16.90;99.90;;;;;;4999527;28;20955;-82
2021/07/13 03:34:22;;;;;;;3.13;1.53;;;16.90;99.90;;;;;;5000783;28;20444;-81
2021/07/13 03:36:49;;;;;;;1.77;1.27;;;16.80;99.90;;;;;;5004372;28;20963;-82
2021/07/13 03:39:17;;;;;;;1.10;1.10;;;16.90;99.90;;;;;;5003189;28;20476;-82
2021/07/13 03:41:43;;;;;;;1.10;1.00;;;16.90;99.90;;;;;;5004255;28;20448;-81
2021/07/13 03:44:14;;;;;;;1.67;0.87;;;16.80;99.90;;;;;;5003516;28;20448;-82
2021/07/13 03:46:41;;;;;;;1.30;0.90;;;16.80;99.90;;;;;;5001280;28;20805;-82
2021/07/13 03:49:09;;;;;;;1.03;0.90;;;16.80;99.90;;;;;;4999286;28;20479;-82
2021/07/13 03:51:40;;;;;;;1.63;1.10;;;16.70;99.90;;;;;;4999785;28;20448;-82
2021/07/13 03:54:07;;;;;;;0.90;0.90;;;16.70;99.90;;;;;;4998285;28;20436;-82
2021/07/13 03:56:34;;;;;;;2.97;1.40;;;16.70;99.90;;;;;;4999467;28;20943;-82
2021/07/13 03:59:01;;;;;;;3.37;1.20;;;16.70;99.90;;;;;;4998558;28;20468;-82
2021/07/13 04:01:29;;;;;;;3.13;0.93;;;16.70;99.90;;;;;;4999428;28;20437;-82
2021/07/13 04:03:56;;;;;;;1.20;1.10;;;16.70;99.90;;;;;;4998376;28;20948;-82
2021/07/13 04:06:23;;;;;;;1.50;1.07;;;16.70;99.90;;;;;;4998789;28;20433;-82
2021/07/13 04:08:50;;;;;;;2.30;1.00;;;16.70;99.90;;;;;;4998345;28;20492;-82
2021/07/13 04:11:17;;;;;;;1.57;1.00;;;16.60;99.90;;;;;;4997898;28;20479;-82
2021/07/13 04:13:44;;;;;;;1.27;0.90;;;16.70;99.90;;;;;;4997370;28;20901;-83
2021/07/13 04:16:11;;;;;;;1.87;1.10;;;16.70;99.90;;;;;;4996815;28;20452;-83
2021/07/13 04:18:39;;;;;;;2.60;1.27;;;16.70;99.90;;;;;;4997647;28;20472;-82
2021/07/13 04:21:06;;;;;;;1.13;1.03;;;16.80;99.90;;;;;;4999317;28;20441;-82
2021/07/13 04:23:33;;;;;;;1.90;1.23;;;16.80;99.90;;;;;;4997170;28;20452;-83
2021/07/13 04:25:59;;;;;;;1.77;1.40;;;16.80;99.90;;;;;;4996071;28;20448;-82
2021/07/13 04:28:29;;;;;;;1.63;1.53;;;16.80;99.90;;;;;;4996906;28;20849;-83
2021/07/13 04:30:56;;;;;;;2.07;1.93;;;16.80;99.90;;;;;;4997648;28;20433;-82
2021/07/13 04:33:23;;;;;;;2.33;1.50;;;16.90;99.90;;;;;;5001846;28;20456;-82
2021/07/13 04:35:51;;;;;;;2.33;1.80;;;16.90;99.90;;;;;;5009353;28;20453;-82
2021/07/13 04:38:18;;;;;;;2.40;2.30;;;16.90;99.90;;;;;;4998106;28;20461;-82
2021/07/13 04:40:45;;;;;;;2.20;2.10;;;16.90;99.90;;;;;;4996422;28;20448;-83
2021/07/13 04:43:12;;;;;;;2.70;2.20;;;16.90;99.90;;;;;;4994302;28;20456;-82
2021/07/13 04:45:39;;;;;;;7.13;2.63;;;16.90;99.90;;;;;;4995812;28;20453;-82
2021/07/13 04:48:06;;;;;;;2.23;2.10;;;17.00;99.90;;;;;;4995159;28;20492;-82
2021/07/13 04:50:33;;;;;;;4.50;2.70;;;17.00;99.90;;;;;;4995480;28;20468;-82
2021/07/13 04:53:01;;;;;;;2.10;2.00;;;17.00;99.90;;;;;;4995082;28;20456;-82
2021/07/13 04:55:28;;;;;;;3.40;2.50;;;17.10;99.90;;;;;;4995040;28;20456;-82
2021/07/13 04:57:55;;;;;;;3.00;1.87;;;17.10;99.90;;;;;;4994855;28;20456;-83
2021/07/13 05:00:22;;;;;;;2.63;2.40;;;17.10;99.90;;;;;;4994977;28;20448;-82
2021/07/13 05:02:48;;;;;;;1.90;1.73;;;17.10;99.90;;;;;;4994829;28;20455;-83
2021/07/13 05:05:15;;;;;;;2.13;1.97;;;17.20;99.90;;;;;;4994680;28;20417;-83
2021/07/13 05:07:42;;;;;;;5.30;2.33;;;17.20;99.90;;;;;;4994758;28;20484;-82
2021/07/13 05:10:12;;;;;;;3.70;1.90;;;17.20;99.90;;;;;;4995074;28;20475;-82
2021/07/13 05:12:39;;;;;;;2.73;2.30;;;17.20;99.90;;;;;;4994754;28;20460;-82
2021/07/13 05:15:08;;;;;;;2.13;1.77;;;17.30;99.90;;;;;;4994438;28;20437;-83
2021/07/13 05:17:38;;;;;;;2.47;2.30;;;17.30;99.90;;;;;;4994659;28;20801;-82
2021/07/13 05:20:06;;;;;;;2.43;2.33;;;17.30;99.90;;;;;;4994584;28;20514;-83
2021/07/13 05:22:33;;;;;;;4.37;2.73;;;17.30;99.90;;;;;;4994472;28;20437;-83
2021/07/13 05:25:00;;;;;;;2.33;2.13;;;17.30;99.90;;;;;;4994159;28;20464;-83
2021/07/13 05:27:28;;;;;;;3.40;1.90;;;17.30;99.90;;;;;;4994306;28;20437;-83
2021/07/13 05:29:56;;;;;;;3.00;2.10;;;17.30;99.90;;;;;;4994154;28;21018;-83
2021/07/13 05:32:23;;;;;;;2.57;1.83;;;17.40;99.90;;;;;;4994470;28;20515;-83
2021/07/13 05:34:50;;;;;;;2.50;2.30;;;17.40;99.90;;;;;;4994223;28;20454;-83
2021/07/13 05:37:17;;;;;;;2.50;2.30;;;17.40;99.90;;;;;;4994109;28;20444;-83
2021/07/13 05:39:44;;;;;;;4.10;2.70;;;17.40;99.90;;;;;;4994164;28;20477;-82
2021/07/13 05:42:11;;;;;;;2.00;1.90;;;17.40;99.90;;;;;;4994231;28;20809;-82
2021/07/13 05:44:40;;;;;;;3.23;2.60;;;17.40;99.90;;;;;;4993928;28;20827;-83
2021/07/13 05:47:06;;;;;;;2.80;2.50;;;17.40;99.90;;;;;;4994336;28;20495;-83
2021/07/13 05:49:33;;;;;;;5.30;4.30;;;17.40;99.90;;;;;;4993948;28;20499;-83
2021/07/13 05:52:00;;;;;;;4.43;2.37;;;17.30;99.90;;;;;;4994178;28;20454;-83
2021/07/13 05:54:27;;;;;;;2.77;2.57;;;17.30;99.90;;;;;;4996828;28;20467;-82
2021/07/13 05:56:54;;;;;;;5.10;2.83;;;17.40;99.90;;;;;;4995742;28;20456;-81
2021/07/13 05:59:21;;;;;;;3.03;2.70;;;17.30;99.90;;;;;;4993780;28;20468;-82
2021/07/13 06:01:49;;;;;;;3.40;2.30;;;17.30;99.90;;;;;;4993937;28;20814;-81
2021/07/13 06:04:17;;;;;;;3.93;3.00;;;17.20;99.90;;;;;;4993678;28;20533;-81
2021/07/13 06:06:43;;;;;;;3.37;2.70;;;17.20;99.90;;;;;;4993944;28;20448;-81
2021/07/13 06:09:10;;;;;;;3.13;2.90;;;17.10;99.90;;;;;;4994140;28;20508;-81
2021/07/13 06:11:37;;;;;;;4.70;3.20;;;17.10;99.90;;;;;;4996159;28;20467;-82
2021/07/13 06:14:03;;;;;;;3.40;3.10;;;17.10;99.90;;;;;;4994767;28;20475;-82
2021/07/13 06:16:30;;;;;;;4.83;3.60;;;17.10;99.90;;;;;;4994445;28;20959;-82
2021/07/13 06:18:58;;;;;;;3.20;3.00;;;17.10;99.90;;;;;;4994494;28;20483;-81
2021/07/13 06:21:25;;;;;;;3.77;3.47;;;17.10;99.90;;;;;;4995601;28;20452;-81
2021/07/13 06:23:52;;;;;;;3.27;2.97;;;17.20;99.90;;;;;;4994350;28;20455;-81
2021/07/13 06:26:19;;;;;;;3.57;3.10;;;17.20;99.90;;;;;;4995677;28;20959;-81
2021/07/13 06:28:45;;;;;;;4.60;3.70;;;17.10;99.90;;;;;;4995574;28;20499;-81
2021/07/13 06:31:12;;;;;;;3.97;3.57;;;17.10;99.90;;;;;;4995529;28;20472;-81
2021/07/13 06:33:39;;;;;;;3.60;2.97;;;17.10;99.90;;;;;;4994881;28;20815;-81
2021/07/13 06:36:08;;;;;;;4.00;3.60;;;17.20;99.90;;;;;;4994815;28;20810;-81
2021/07/13 06:38:35;;;;;;;8.63;4.10;;;17.30;99.90;;;;;;4994574;28;20477;-81
2021/07/13 06:41:01;;;;;;;7.20;4.17;;;17.30;99.90;;;;;;4995963;28;20448;-82
2021/07/13 06:43:28;;;;;;;3.37;3.07;;;17.30;99.90;;;;;;4997176;28;20448;-82
2021/07/13 06:45:55;;;;;;;4.30;2.80;;;17.30;99.90;;;;;;4998478;28;20456;-81
2021/07/13 06:48:23;;;;;;;6.27;3.57;;;17.20;99.90;;;;;;4995217;28;20519;-81
2021/07/13 06:50:50;;;;;;;4.57;3.40;;;17.20;99.90;;;;;;4998056;28;20460;-81
2021/07/13 06:53:19;;;;;;;7.13;3.30;;;17.20;99.90;;;;;;4997980;28;20464;-81
2021/07/13 06:55:45;;;;;;;7.47;3.90;;;17.20;99.90;;;;;;4996722;28;20433;-81
2021/07/13 06:58:12;;;;;;;4.57;3.30;;;17.20;99.90;;;;;;4993488;28;20476;-81
2021/07/13 07:00:39;;;;;;;3.90;3.47;;;17.20;99.90;;;;;;4994106;28;20440;-81
2021/07/13 07:03:06;;;;;;;5.67;4.27;;;17.20;99.90;;;;;;4994084;28;20432;-81
2021/07/13 07:05:33;;;;;;;4.57;4.00;;;17.20;99.90;;;;;;4996184;28;20437;-81
2021/07/13 07:07:59;;;;;;;5.20;3.60;;;17.20;99.90;;;;;;4999495;28;20520;-81
2021/07/13 07:10:28;;;;;;;3.60;3.30;;;17.20;99.90;;;;;;5000884;28;20429;-81
2021/07/13 07:12:54;;;;;;;3.67;3.27;;;17.20;99.90;;;;;;5005691;28;20433;-81
2021/07/13 07:15:21;;;;;;;6.40;3.63;;;17.10;99.90;;;;;;5001989;28;20435;-81
2021/07/13 07:17:49;;;;;;;6.07;3.30;;;17.10;99.90;;;;;;4999892;28;20436;-80
2021/07/13 07:20:18;;;;;;;6.43;3.63;;;17.10;99.90;;;;;;4999260;28;20433;-80
2021/07/13 07:22:46;;;;;;;4.17;3.73;;;17.10;99.90;;;;;;4999051;28;20428;-80
2021/07/13 07:25:14;;;;;;;4.40;4.00;;;17.10;99.90;;;;;;4997070;28;20436;-80
2021/07/13 07:27:42;;;;;;;3.47;3.03;;;17.10;99.90;;;;;;4996486;28;20425;-80
2021/07/13 07:30:11;;;;;;;4.40;3.50;;;17.10;99.90;;;;;;4997633;28;20494;-80
2021/07/13 07:32:40;;;;;;;3.40;3.10;;;17.20;99.90;;;;;;4999231;28;20901;-80
2021/07/13 07:35:08;;;;;;;6.43;3.97;;;17.20;99.90;;;;;;4998015;28;20447;-80
2021/07/13 07:37:37;;;;;;;6.43;3.70;;;17.20;99.90;;;;;;4999298;28;20433;-81
2021/07/13 07:40:05;;;;;;;2.93;2.63;;;17.20;99.90;;;;;;4999258;28;20468;-81
2021/07/13 07:42:32;;;;;;;3.53;3.23;;;17.20;99.90;;;;;;4998464;28;20433;-80
2021/07/13 07:45:01;;;;;;;3.70;3.40;;;17.10;99.90;;;;;;4999990;28;20428;-80
2021/07/13 07:47:28;;;;;;;3.90;3.60;;;17.10;99.90;;;;;;4998483;28;20480;-81
2021/07/13 07:49:55;;;;;;;4.50;3.50;;;17.20;99.90;;;;;;4998795;28;20491;-81
2021/07/13 07:52:24;;;;;;;5.37;3.63;;;17.10;99.90;;;;;;5008324;28;20433;-82
2021/07/13 07:54:51;;;;;;;3.40;3.10;;;17.20;99.90;;;;;;5009285;28;20443;-83
2021/07/13 07:57:18;;;;;;;2.87;2.67;;;17.20;99.90;;;;;;5009988;28;20455;-82
2021/07/13 07:59:44;;;;;;;5.30;3.63;;;17.20;99.90;;;;;;5011660;28;20463;-82
2021/07/13 08:02:14;;;;;;;2.67;2.57;;;17.20;99.90;;;;;;5010090;28;20437;-82
2021/07/13 08:04:42;;;;;;;2.63;2.30;;;17.20;99.90;;;;;;5006970;28;20437;-82
2021/07/13 08:07:09;;;;;;;2.53;2.30;;;17.10;99.90;;;;;;5007526;28;20445;-83
2021/07/13 08:09:36;;;;;;;5.83;2.27;;;17.10;99.90;;;;;;5003424;28;20492;-83
2021/07/13 08:12:03;;;;;;;2.20;1.80;;;17.10;99.90;;;;;;5003419;28;20936;-83
2021/07/13 08:14:30;;;;;;;7.60;4.57;;;17.10;99.90;;;;;;5009553;28;20437;-82
2021/07/13 08:16:57;;;;;;;2.43;2.23;;;17.20;99.90;;;;;;5008636;28;20457;-82
2021/07/13 08:19:25;;;;;;;2.10;1.70;;;17.20;99.90;;;;;;4998830;28;20475;-82
2021/07/13 08:21:52;;;;;;;1.90;1.60;;;17.30;99.90;;;;;;5002207;28;20448;-82
2021/07/13 08:24:18;;;;;;;3.13;2.00;;;17.40;99.90;;;;;;5004059;28;20452;-81
2021/07/13 08:26:46;;;;;;;4.13;2.43;;;17.50;99.90;;;;;;5000579;28;20449;-82
2021/07/13 08:29:13;;;;;;;1.50;1.40;;;17.50;99.90;;;;;;5003138;28;20830;-81
2021/07/13 08:31:39;;;;;;;1.53;1.43;;;17.50;99.90;;;;;;5005361;28;20460;-81
2021/07/13 08:34:06;;;;;;;2.00;1.53;;;17.50;99.90;;;;;;5004074;28;20840;-81
2021/07/13 08:36:34;;;;;;;1.43;1.17;;;17.50;99.90;;;;;;5008514;28;20464;-81
2021/07/13 08:39:01;;;;;;;3.83;1.50;;;17.40;99.90;;;;;;5008004;28;20840;-81
2021/07/13 08:41:30;;;;;;;8.80;1.30;;;17.40;99.90;;;;;;5010541;28;20444;-81
2021/07/13 08:43:58;;;;;;;1.50;1.40;;;17.30;99.90;;;;;;5010194;28;20440;-81
2021/07/13 08:46:25;;;;;;;1.00;1.00;;;17.30;99.90;;;;;;5009646;28;20452;-82
2021/07/13 08:48:54;;;;;;;1.07;0.97;;;17.30;99.90;;;;;;5010139;28;20492;-81
2021/07/13 08:51:21;;;;;;;0.93;0.90;;;17.20;99.90;;;;;;5005564;28;20445;-82
2021/07/13 08:53:49;;;;;;;1.00;0.90;;;17.20;99.90;;;;;;5004496;28;20944;-83
2021/07/13 08:56:16;;;;;;;2.70;1.00;;;17.10;99.90;;;;;;4998782;28;20453;-85
2021/07/13 08:58:43;;;;;;;0.73;0.70;;;17.10;99.90;;;;;;4996178;28;20468;-85
2021/07/13 09:01:09;;;;;;;0.60;0.60;;;17.00;99.90;;;;;;4996844;28;20800;-84
2021/07/13 09:03:36;;;;;;;2.00;0.80;;;17.00;99.90;;;;;;4998773;28;20441;-83
2021/07/13 09:06:04;;;;;;;0.80;0.80;;;16.90;99.90;;;;;;4997476;28;20445;-85
2021/07/13 09:08:33;;;;;;;0.80;0.60;;;16.90;99.90;;;;;;4995110;28;20551;-84
2021/07/13 09:11:07;;;;;;;1.13;0.57;;;16.80;99.90;;;;;;4995234;28;20449;-84
2021/07/13 09:13:36;;;;;;;1.47;0.70;;;16.80;99.90;;;;;;4994605;28;20416;-83
2021/07/13 09:16:05;;;;;;;3.00;0.70;;;16.70;99.90;;;;;;4994755;28;20485;-83
2021/07/13 09:18:33;;;;;;;2.90;0.63;;;16.80;99.90;;;;;;4994568;28;20468;-82
2021/07/13 09:21:12;;;;;;;0.53;0.53;;;16.70;99.90;;;;;;4994653;28;20461;-83
2021/07/13 09:24:08;;;;;;;0.90;0.40;;;16.60;99.90;;;;;;4994666;28;20451;-84
2021/07/13 09:26:47;;;;;;;5.63;0.80;;;16.60;99.90;;;;;;4994202;28;20449;-84
2021/07/13 09:29:29;;;;;;;1.07;0.40;;;16.60;99.90;;;;;;4993985;28;20838;-83
2021/07/13 09:31:56;;;;;;;1.23;0.40;;;16.60;99.90;;;;;;4994476;28;20924;-84
2021/07/13 09:34:23;;;;;;;0.80;0.30;;;16.50;99.90;;;;;;4994467;28;20436;-84
2021/07/13 09:36:53;;;;;;;1.60;0.30;;;16.40;99.90;;;;;;4994917;28;20452;-82
2021/07/13 09:39:23;;;;;;;0.60;0.53;;;16.40;99.90;;;;;;4994580;28;20465;-83
2021/07/13 09:41:53;;;;;;;0.50;0.30;;;16.30;99.90;;;;;;4994890;28;20978;-83
2021/07/13 09:44:22;;;;;;;0.40;0.40;;;16.30;99.90;;;;;;4995823;28;20449;-83
2021/07/13 09:46:50;;;;;;;1.20;0.30;;;16.20;99.90;;;;;;4994703;28;20471;-81
2021/07/13 09:49:20;;;;;;;0.40;0.30;;;16.10;99.90;;;;;;4994829;28;20499;-82
2021/07/13 09:51:54;;;;;;;0.80;0.30;;;16.00;99.90;;;;;;4994511;28;20448;-83
2021/07/13 09:54:30;;;;;;;0.50;0.30;;;15.80;99.90;;;;;;4994583;28;20828;-83
2021/07/13 09:56:58;;;;;;;0.80;0.33;;;15.70;99.90;;;;;;4994292;28;20451;-85
2021/07/13 09:59:26;;;;;;;0.30;0.30;;;15.60;99.90;;;;;;4994097;28;20491;-84
2021/07/13 10:01:52;;;;;;;0.40;0.40;;;15.60;99.90;;;;;;4994087;28;20456;-83
2021/07/13 10:04:20;;;;;;;1.00;0.37;;;15.60;99.90;;;;;;4993660;28;20448;-83
2021/07/13 10:06:47;;;;;;;0.30;0.30;;;15.60;99.90;;;;;;4994015;28;20455;-82
2021/07/13 10:09:15;;;;;;;0.40;0.40;;;15.50;99.90;;;;;;4993808;28;20480;-83
2021/07/13 10:11:42;;;;;;;2.40;0.30;;;15.50;99.90;;;;;;4993946;28;20453;-83
2021/07/13 10:14:11;;;;;;;2.53;0.90;;;15.60;99.90;;;;;;4993605;28;20459;-84
2021/07/13 10:16:39;;;;;;;0.70;0.40;;;15.60;99.90;;;;;;4994281;28;20456;-84
2021/07/13 10:19:07;;;;;;;1.90;0.40;;;15.60;99.90;;;;;;4994925;28;20464;-84
2021/07/13 10:21:35;;;;;;;0.40;0.30;;;15.60;99.90;;;;;;4994324;28;20954;-83
2021/07/13 10:24:03;;;;;;;0.40;0.40;;;15.60;99.90;;;;;;4994355;28;20483;-83
2021/07/13 10:26:48;;;;;;;0.47;0.47;;;15.60;99.90;;;;;;4994565;28;20449;-83
2021/07/13 10:29:42;;;;;;;0.63;0.60;;;15.40;99.90;;;;;;4993908;28;20487;-82
2021/07/13 10:32:33;;;;;;;0.40;0.30;;;15.40;99.90;;;;;;4993753;28;20439;-81
2021/07/13 10:35:04;;;;;;;0.30;0.30;;;15.50;99.90;;;;;;4995906;28;20441;-82
2021/07/13 10:37:34;;;;;;;0.50;0.30;;;15.40;99.90;;;;;;4994735;28;20451;-82
2021/07/13 10:40:04;;;;;;;0.37;0.30;;;15.40;99.90;;;;;;4998011;28;20461;-81
2021/07/13 10:42:46;;;;;;;0.30;0.30;;;15.40;99.90;;;;;;4998405;28;20433;-82
2021/07/13 10:45:16;;;;;;;0.40;0.30;;;15.40;99.90;;;;;;4997560;28;20468;-78
2021/07/13 10:47:57;;;;;;;0.97;0.30;;;15.50;99.90;;;;;;4997078;28;20480;-76
2021/07/13 10:50:46;;;;;;;0.40;0.30;;;15.40;99.90;;;;;;4997283;28;20499;-76
2021/07/13 10:53:18;;;;;;;0.30;0.30;;;15.40;99.90;;;;;;4997252;28;20445;-76
2021/07/13 10:55:59;;;;;;;0.40;0.30;;;15.40;99.90;;;;;;4997146;28;20437;-77
2021/07/13 10:58:45;;;;;;;0.30;0.30;;;15.50;99.90;;;;;;4996716;28;20456;-76
2021/07/13 11:01:16;;;;;;;0.30;0.30;;;15.50;99.90;;;;;;4994805;28;20461;-76
2021/07/13 11:04:12;;;;;;;0.30;0.30;;;15.50;99.90;;;;;;4997172;28;20433;-76
2021/07/13 11:06:41;;;;;;;0.30;0.30;;;15.50;99.90;;;;;;4996866;28;20527;-76
2021/07/13 11:09:20;;;;;;;0.40;0.30;;;15.60;99.90;;;;;;4996634;28;20468;-76
2021/07/13 11:11:47;;;;;;;0.30;0.30;;;15.60;99.90;;;;;;4996680;28;20800;-79
2021/07/13 11:14:15;;;;;;;0.40;0.30;;;15.70;99.90;;;;;;4996736;28;20413;-77
2021/07/13 11:16:44;;;;;;;0.30;0.30;;;15.60;99.90;;;;;;4996943;28;20539;-80
2021/07/13 11:19:15;;;;;;;0.30;0.30;;;15.60;99.90;;;;;;4996821;28;20475;-80
2021/07/13 11:21:42;;;;;;;0.40;0.30;;;15.60;99.90;;;;;;4996953;28;20444;-79
2021/07/13 11:24:14;;;;;;;0.40;0.37;;;15.60;99.90;;;;;;4996827;28;20440;-78
2021/07/13 11:26:44;;;;;;;1.60;0.30;;;15.60;99.90;;;;;;4996731;28;20548;-79
2021/07/13 11:29:20;;;;;;;1.57;0.40;;;15.70;99.90;;;;;;4996288;28;20468;-79
2021/07/13 11:31:56;;;;;;;0.30;0.30;;;15.70;99.90;;;;;;4996662;28;20432;-80
2021/07/13 11:34:25;;;;;;;3.87;0.33;;;15.70;99.90;;;;;;4996671;28;20429;-79
2021/07/13 11:36:53;;;;;;;0.50;0.30;;;15.70;99.90;;;;;;4996711;28;20488;-81
2021/07/13 11:39:25;;;;;;;0.30;0.30;;;15.70;99.90;;;;;;4996206;28;20980;-81
2021/07/13 11:41:53;;;;;;;0.40;0.40;;;15.70;99.90;;;;;;4996539;28;20442;-81
2021/07/13 11:44:21;;;;;;;0.40;0.30;;;15.60;99.90;;;;;;4996204;28;20917;-81
2021/07/13 11:46:50;;;;;;;0.33;0.30;;;15.70;99.90;;;;;;4996015;28;20469;-80
2021/07/13 11:49:19;;;;;;;1.07;0.40;;;15.70;99.90;;;;;;4996187;28;20468;-82
2021/07/13 11:51:54;;;;;;;1.50;0.30;;;15.60;99.90;;;;;;4995409;28;20801;-82
2021/07/13 11:54:23;;;;;;;2.50;0.40;;;15.60;99.90;;;;;;4996278;28;20551;-82
2021/07/13 11:56:52;;;;;;;0.40;0.30;;;15.60;99.90;;;;;;4996244;28;20437;-82
2021/07/13 11:59:20;;;;;;;1.43;0.30;;;15.70;99.90;;;;;;4996154;28;20472;-82
2021/07/13 12:01:52;;;;;;;0.30;0.30;;;15.70;99.90;;;;;;4995915;28;20429;-83
2021/07/13 12:04:20;;;;;;;0.40;0.30;;;15.70;99.90;;;;;;4996102;28;20471;-82
2021/07/13 12:06:51;;;;;;;1.00;0.30;;;15.90;99.90;;;;;;4995780;28;20927;-83
2021/07/13 12:09:27;;;;;;;0.40;0.30;;;16.00;99.90;;;;;;4995896;28;20472;-82
2021/07/13 12:11:55;;;;;;;0.40;0.30;;;16.00;99.90;;;;;;4995893;28;20425;-81
2021/07/13 12:14:25;;;;;;;1.53;0.57;;;16.00;99.90;;;;;;4995703;28;20455;-84
2021/07/13 12:17:20;;;;;;;0.40;0.30;;;16.00;99.90;;;;;;4995941;28;20886;-83
2021/07/13 12:19:57;;;;;;;0.37;0.33;;;16.10;99.90;;;;;;4988408;28;20475;-84
2021/07/13 12:22:57;;;;;;;0.40;0.40;;;16.20;99.90;;;;;;4995844;28;20447;-84
2021/07/13 12:26:15;;;;;;;0.40;0.40;;;16.10;99.90;;;;;;4990891;28;20848;-84
2021/07/13 12:29:14;;;;;;;0.40;0.40;;;16.20;99.90;;;;;;4994733;28;20475;-84
2021/07/13 12:32:31;;;;;;;0.40;0.40;;;16.20;99.90;;;;;;4995372;28;20467;-84
2021/07/13 12:35:11;;;;;;;0.40;0.40;;;16.30;99.90;;;;;;4995306;28;20881;-84
2021/07/13 12:37:46;;;;;;;1.87;0.40;;;16.30;99.90;;;;;;4995531;28;20436;-84
2021/07/13 12:40:16;;;;;;;0.40;0.40;;;16.30;99.90;;;;;;4995812;28;20429;-84
2021/07/13 12:42:46;;;;;;;2.80;0.50;;;16.40;99.90;;;;;;4995456;28;20421;-85
2021/07/13 12:45:16;;;;;;;0.40;0.40;;;16.50;99.90;;;;;;4995377;28;20448;-85
2021/07/13 12:47:46;;;;;;;0.50;0.40;;;16.60;99.90;;;;;;4995086;28;20602;-84
2021/07/13 12:50:25;;;;;;;1.17;0.40;;;16.60;99.90;;;;;;4995970;28;20568;-84
2021/07/13 12:52:58;;;;;;;0.50;0.50;;;16.70;99.90;;;;;;4995273;28;20413;-84
2021/07/13 12:55:28;;;;;;;2.30;0.40;;;16.60;99.90;;;;;;4995028;28;20413;-85
2021/07/13 12:58:05;;;;;;;0.40;0.40;;;16.50;99.90;;;;;;4995139;28;20417;-84
2021/07/13 13:00:32;;;;;;;0.40;0.40;;;16.60;99.90;;;;;;4995117;28;20515;-84